Time;durP1;ratioP1;P1;durP2;ratioP2;P2;SDS_P1;SDS_P2;PMS_P1;PMS_P2;Temp;Humidity;BMP_temperature;BMP_pressure;BME280_temperature;BME280_humidity;BME280_pressure;Samples;Min_cycle;Max_cycle;Signal;HPM_P1;HPM_P2
2021/11/08 01:02:12;;;;;;;6.70;3.10;;;10.10;99.90;;;;;;4759261;30;21168;-67
2021/11/08 02:13:13;;;;;;;;;;;;;;;;;;;;;
2021/11/08 02:23:42;;;;;;;55.33;50.43;;;10.20;99.90;;;;;;5913170;24;20801;-67
2021/11/08 02:30:55;;;;;;;;;;;;;;;;;;;;;
2021/11/08 02:45:54;;;;;;;;;;;;;;;;;;;;;
2021/11/08 03:38:35;;;;;;;91.10;71.77;;;10.10;99.90;;;;;;5911071;24;20576;-67
2021/11/08 03:45:46;;;;;;;75.60;65.73;;;10.10;99.90;;;;;;5862030;24;20561;-68
2021/11/08 03:52:20;;;;;;;83.57;70.47;;;10.00;99.90;;;;;;5807706;24;20692;-68
2021/11/08 04:06:03;;;;;;;242.27;87.70;;;9.90;99.90;;;;;;5857103;24;20686;-67
2021/11/08 04:26:35;;;;;;;242.00;88.10;;;9.90;99.90;;;;;;5781879;24;20576;-68
2021/11/08 05:39:17;;;;;;;216.57;80.27;;;9.70;99.90;;;;;;5887065;24;20592;-68
2021/11/08 05:46:25;;;;;;;;;;;;;;;;;;;;;
2021/11/08 06:51:06;;;;;;;463.80;422.30;;;10.00;99.90;;;;;;6178207;23;24391;-64
2021/11/08 06:53:40;;;;;;;459.45;417.92;;;10.00;99.90;;;;;;6180270;23;24349;-64
2021/11/08 06:56:08;;;;;;;434.33;393.87;;;10.00;99.90;;;;;;6179358;23;24344;-65
2021/11/08 06:58:34;;;;;;;424.20;384.15;;;10.00;99.90;;;;;;6180070;23;24411;-64
2021/11/08 07:00:59;;;;;;;454.77;413.80;;;10.00;99.90;;;;;;6178812;23;24380;-64
2021/11/08 07:03:27;;;;;;;440.20;399.50;;;10.00;99.90;;;;;;6180101;23;24908;-64
2021/11/08 07:05:56;;;;;;;425.73;385.83;;;10.00;99.90;;;;;;6179818;23;24430;-64
2021/11/08 07:08:21;;;;;;;515.58;473.13;;;10.00;99.90;;;;;;6180108;23;24403;-64
2021/11/08 07:10:49;;;;;;;566.58;521.85;;;9.90;99.90;;;;;;6177710;23;24885;-64
2021/11/08 07:13:15;;;;;;;562.60;518.80;;;10.00;99.90;;;;;;6179574;23;24356;-64
2021/11/08 07:15:43;;;;;;;389.23;330.65;;;10.00;99.90;;;;;;6178502;23;20714;-64
2021/11/08 07:18:11;;;;;;;412.23;370.73;;;10.00;99.90;;;;;;6180746;23;24888;-64
2021/11/08 07:20:39;;;;;;;488.40;445.67;;;10.00;99.90;;;;;;6179056;23;24383;-64
2021/11/08 07:23:05;;;;;;;548.70;505.23;;;10.00;99.90;;;;;;6204521;23;24442;-64
2021/11/08 07:25:32;;;;;;;374.73;285.93;;;10.00;99.90;;;;;;6181330;23;24360;-64
2021/11/08 07:27:59;;;;;;;417.55;377.23;;;9.90;99.90;;;;;;6180243;23;24359;-64
2021/11/08 07:30:25;;;;;;;567.63;523.03;;;9.90;99.90;;;;;;6176306;23;24368;-64
2021/11/08 07:32:54;;;;;;;466.23;423.50;;;9.90;99.90;;;;;;6180218;23;24439;-64
2021/11/08 07:35:19;;;;;;;514.85;472.05;;;9.90;99.90;;;;;;6180960;23;20730;-64
2021/11/08 07:37:45;;;;;;;551.13;507.20;;;9.90;99.90;;;;;;6180440;23;20746;-64
2021/11/08 07:40:11;;;;;;;495.02;452.67;;;9.90;99.90;;;;;;6179143;23;24388;-64
2021/11/08 07:42:37;;;;;;;359.05;238.75;;;9.90;99.90;;;;;;6179148;23;24372;-64
2021/11/08 07:45:05;;;;;;;378.73;305.00;;;10.00;99.90;;;;;;6178664;23;21226;-64
2021/11/08 07:47:33;;;;;;;458.88;416.88;;;10.00;99.90;;;;;;6180423;23;24376;-64
2021/11/08 07:49:59;;;;;;;568.77;524.77;;;10.00;99.90;;;;;;6179004;23;24435;-64
2021/11/08 07:52:27;;;;;;;8.20;2.90;;;10.00;99.90;;;;;;6180818;23;20697;-64
2021/11/08 07:54:52;;;;;;;8.20;2.77;;;10.00;99.90;;;;;;6182143;23;20484;-64
2021/11/08 07:57:19;;;;;;;7.70;2.93;;;9.80;99.90;;;;;;6181384;23;20539;-64
2021/11/08 07:59:45;;;;;;;4.73;2.50;;;9.80;99.90;;;;;;6180145;23;20181;-64
2021/11/08 08:02:11;;;;;;;6.23;2.47;;;9.70;99.90;;;;;;6180333;23;21148;-64
2021/11/08 08:04:39;;;;;;;5.53;2.20;;;9.60;99.90;;;;;;6179204;23;20565;-64
2021/11/08 08:07:05;;;;;;;5.30;2.63;;;9.50;99.90;;;;;;6202768;23;21498;-64
2021/11/08 08:09:31;;;;;;;7.57;2.10;;;9.50;99.90;;;;;;6204418;23;20564;-64
2021/11/08 08:11:56;;;;;;;5.83;2.17;;;9.50;99.90;;;;;;6178091;23;20278;-64
2021/11/08 08:14:24;;;;;;;7.47;2.23;;;9.40;99.90;;;;;;6178020;23;20160;-65
2021/11/08 08:16:52;;;;;;;4.93;2.00;;;9.40;99.90;;;;;;6180873;23;20237;-64
2021/11/08 08:19:22;;;;;;;7.13;2.60;;;9.40;99.90;;;;;;6177315;23;20561;-64
2021/11/08 08:21:48;;;;;;;5.47;2.83;;;9.40;99.90;;;;;;6177910;23;20602;-64
2021/11/08 08:24:16;;;;;;;6.07;2.17;;;9.40;99.90;;;;;;6180787;23;20859;-64
2021/11/08 08:26:43;;;;;;;6.47;2.37;;;9.40;99.90;;;;;;6181099;23;20564;-64
2021/11/08 08:29:15;;;;;;;8.23;2.40;;;9.40;99.90;;;;;;6180358;23;20584;-64
2021/11/08 08:31:46;;;;;;;7.70;3.10;;;9.50;99.90;;;;;;6179611;23;20596;-64
2021/11/08 08:34:14;;;;;;;8.17;2.17;;;9.40;99.90;;;;;;6181457;23;20821;-64
2021/11/08 08:36:43;;;;;;;5.20;1.90;;;9.50;99.90;;;;;;6181330;23;20533;-64
2021/11/08 08:39:11;;;;;;;9.90;2.60;;;9.50;99.90;;;;;;6180980;23;20598;-65
2021/11/08 08:41:42;;;;;;;6.77;2.27;;;9.50;99.90;;;;;;6180273;23;20596;-64
2021/11/08 08:44:12;;;;;;;7.57;2.00;;;9.50;99.90;;;;;;6183299;23;20512;-64
2021/11/08 08:46:40;;;;;;;6.43;2.20;;;9.40;99.90;;;;;;6182380;23;20570;-64
2021/11/08 08:49:05;;;;;;;5.40;2.53;;;9.40;99.90;;;;;;6181660;23;20905;-64
2021/11/08 08:51:31;;;;;;;9.30;2.63;;;9.40;99.90;;;;;;6181976;23;20584;-64
2021/11/08 08:53:57;;;;;;;9.37;2.87;;;9.50;99.90;;;;;;6182029;23;20536;-64
2021/11/08 08:56:33;;;;;;;5.90;2.13;;;9.40;99.90;;;;;;6182990;23;20161;-64
2021/11/08 08:59:02;;;;;;;4.60;2.30;;;9.40;99.90;;;;;;6181275;23;20220;-64
2021/11/08 09:01:28;;;;;;;9.03;2.10;;;9.40;99.90;;;;;;6184310;23;20600;-64
2021/11/08 09:03:58;;;;;;;4.53;2.23;;;9.40;99.90;;;;;;6182880;23;20615;-64
2021/11/08 09:06:27;;;;;;;7.27;2.20;;;9.50;99.90;;;;;;6184838;23;21061;-64
2021/11/08 09:08:56;;;;;;;5.97;2.20;;;9.50;99.90;;;;;;6182769;23;20533;-64
2021/11/08 09:11:25;;;;;;;10.03;2.03;;;9.60;99.90;;;;;;6179957;23;20604;-64
2021/11/08 09:13:52;;;;;;;5.60;1.93;;;9.60;99.90;;;;;;6182319;23;20528;-64
2021/11/08 09:16:20;;;;;;;5.47;2.00;;;9.70;99.90;;;;;;6181258;23;20560;-64
2021/11/08 09:18:51;;;;;;;4.77;1.80;;;9.80;99.90;;;;;;6180077;23;21085;-64
2021/11/08 09:21:18;;;;;;;7.30;2.00;;;9.80;99.90;;;;;;6180150;23;21194;-64
2021/11/08 09:23:48;;;;;;;8.90;2.00;;;9.90;99.90;;;;;;6180536;23;20699;-65
2021/11/08 09:26:24;;;;;;;9.10;2.37;;;10.00;99.90;;;;;;6178432;23;20613;-64
2021/11/08 09:28:50;;;;;;;6.93;2.30;;;10.10;99.90;;;;;;6181190;23;20592;-64
2021/11/08 09:31:19;;;;;;;7.47;1.70;;;10.20;99.90;;;;;;6181736;23;20592;-65
2021/11/08 09:33:47;;;;;;;3.77;1.90;;;10.20;99.90;;;;;;6181866;23;20536;-64
2021/11/08 09:36:14;;;;;;;5.63;2.00;;;10.30;99.90;;;;;;6182601;23;20544;-64
2021/11/08 09:38:56;;;;;;;4.93;1.80;;;10.30;99.90;;;;;;6183089;23;20582;-63
2021/11/08 09:41:28;;;;;;;4.60;2.03;;;10.40;99.90;;;;;;6189157;23;20607;-65
2021/11/08 09:43:57;;;;;;;5.90;1.77;;;10.50;99.90;;;;;;6201152;23;20504;-64
2021/11/08 09:46:31;;;;;;;4.40;1.63;;;10.50;99.90;;;;;;6199948;23;20539;-64
2021/11/08 09:49:01;;;;;;;4.53;1.67;;;10.60;99.90;;;;;;6202148;23;20505;-64
2021/11/08 09:51:32;;;;;;;5.53;1.53;;;10.70;99.90;;;;;;6202116;23;20615;-64
2021/11/08 09:53:58;;;;;;;3.77;2.00;;;10.70;99.90;;;;;;6188487;23;20608;-64
2021/11/08 09:56:26;;;;;;;4.87;1.73;;;10.80;99.90;;;;;;6184264;23;21148;-64
2021/11/08 09:58:58;;;;;;;6.57;1.80;;;10.70;99.90;;;;;;6181523;23;20260;-64
2021/11/08 10:01:27;;;;;;;6.73;1.80;;;10.80;99.90;;;;;;6182286;23;20622;-64
2021/11/08 10:04:02;;;;;;;6.10;2.17;;;10.80;99.90;;;;;;6182040;23;20698;-64
2021/11/08 10:06:31;;;;;;;8.03;1.67;;;10.80;99.90;;;;;;6182821;23;20590;-64
2021/11/08 10:08:59;;;;;;;4.00;1.77;;;10.80;99.90;;;;;;6183336;23;20540;-63
2021/11/08 10:11:26;;;;;;;8.63;2.03;;;10.70;99.90;;;;;;6182473;23;20592;-64
2021/11/08 10:14:00;;;;;;;9.27;4.03;;;10.70;99.90;;;;;;6182195;23;20602;-64
2021/11/08 10:16:34;;;;;;;5.73;1.80;;;10.70;99.90;;;;;;6182369;23;20520;-64
2021/11/08 10:19:03;;;;;;;5.90;2.00;;;10.70;99.90;;;;;;6183067;23;20504;-63
2021/11/08 10:21:40;;;;;;;6.63;2.37;;;10.70;99.90;;;;;;6182744;23;20600;-64
2021/11/08 10:24:12;;;;;;;5.90;1.90;;;10.70;99.90;;;;;;6181827;23;20956;-65
2021/11/08 10:26:38;;;;;;;6.60;2.10;;;10.70;99.90;;;;;;6182120;23;20503;-64
2021/11/08 10:29:17;;;;;;;7.60;2.27;;;10.70;99.90;;;;;;6181443;23;20872;-64
2021/11/08 10:31:56;;;;;;;5.63;2.37;;;10.70;99.90;;;;;;6182058;23;20669;-64
2021/11/08 10:34:43;;;;;;;7.30;2.50;;;10.70;99.90;;;;;;6182790;23;20512;-64
2021/11/08 10:37:09;;;;;;;5.87;1.97;;;10.70;99.90;;;;;;6183296;23;20609;-64
2021/11/08 10:39:44;;;;;;;8.53;2.33;;;10.70;99.90;;;;;;6182853;23;20675;-64
2021/11/08 10:42:25;;;;;;;7.60;2.10;;;10.70;99.90;;;;;;6182624;23;20280;-64
2021/11/08 10:44:53;;;;;;;8.17;2.47;;;10.70;99.90;;;;;;6180107;23;20556;-64
2021/11/08 10:47:28;;;;;;;5.37;2.40;;;10.70;99.90;;;;;;6181933;23;20895;-62
2021/11/08 10:49:59;;;;;;;9.07;2.30;;;10.70;99.90;;;;;;6180888;23;20496;-63
2021/11/08 10:52:33;;;;;;;6.97;2.87;;;10.80;99.90;;;;;;6182478;23;20548;-64
2021/11/08 10:55:00;;;;;;;5.93;2.00;;;10.80;99.90;;;;;;6183057;23;20582;-64
2021/11/08 10:57:29;;;;;;;4.57;2.27;;;10.80;99.90;;;;;;6183119;23;20556;-64
2021/11/08 10:59:56;;;;;;;4.87;2.30;;;10.80;99.90;;;;;;6183027;23;21032;-64
2021/11/08 11:02:27;;;;;;;10.97;2.40;;;10.90;99.90;;;;;;6182865;23;20591;-64
2021/11/08 11:04:58;;;;;;;9.93;2.50;;;10.90;99.90;;;;;;6186247;23;21101;-65
2021/11/08 11:07:36;;;;;;;9.53;2.80;;;10.80;99.90;;;;;;6184240;23;20811;-64
2021/11/08 11:10:09;;;;;;;7.57;2.63;;;10.90;99.90;;;;;;6183127;23;20613;-65
2021/11/08 11:12:36;;;;;;;13.80;2.80;;;10.90;99.90;;;;;;6182505;23;20615;-64
2021/11/08 11:15:08;;;;;;;7.20;2.40;;;10.80;99.90;;;;;;6184909;23;20572;-65
2021/11/08 11:17:42;;;;;;;8.23;2.20;;;10.90;99.90;;;;;;6185793;23;21454;-64
2021/11/08 11:20:24;;;;;;;6.23;2.13;;;10.80;99.90;;;;;;6183494;23;20650;-64
2021/11/08 11:23:04;;;;;;;12.03;2.70;;;10.80;99.90;;;;;;6209606;23;20560;-68
2021/11/08 11:25:39;;;;;;;8.63;3.17;;;10.90;99.90;;;;;;6185891;23;20505;-64
2021/11/08 11:28:07;;;;;;;6.33;2.70;;;10.80;99.90;;;;;;6184790;23;20558;-65
2021/11/08 11:30:38;;;;;;;8.20;2.70;;;10.80;99.90;;;;;;6182086;23;20650;-64
2021/11/08 11:33:21;;;;;;;5.83;2.30;;;10.90;99.90;;;;;;6185015;23;20505;-65
2021/11/08 11:36:17;;;;;;;3.93;2.27;;;10.90;99.90;;;;;;6184144;23;20915;-64
2021/11/08 11:38:49;;;;;;;7.60;2.40;;;10.90;99.90;;;;;;6183197;23;20561;-64
2021/11/08 11:41:29;;;;;;;5.03;2.63;;;10.90;99.90;;;;;;6180030;23;20608;-64
2021/11/08 11:44:09;;;;;;;4.83;2.10;;;10.90;99.90;;;;;;6181306;23;20505;-64
2021/11/08 11:46:47;;;;;;;4.50;2.30;;;10.90;99.90;;;;;;6181059;23;21084;-65
2021/11/08 11:49:13;;;;;;;4.43;2.80;;;10.90;99.90;;;;;;6182028;23;20567;-65
2021/11/08 11:51:45;;;;;;;4.00;2.43;;;10.80;99.90;;;;;;6180668;23;20588;-64
2021/11/08 11:54:16;;;;;;;7.63;2.20;;;10.80;99.90;;;;;;6179474;23;20648;-65
2021/11/08 11:56:45;;;;;;;6.57;3.13;;;10.80;99.90;;;;;;6180306;23;20564;-65
2021/11/08 11:59:13;;;;;;;6.90;2.30;;;10.80;99.90;;;;;;6180992;23;20524;-65
2021/11/08 12:01:45;;;;;;;6.77;2.60;;;10.80;99.90;;;;;;6179784;23;20604;-65
2021/11/08 12:04:13;;;;;;;5.50;3.03;;;10.70;99.90;;;;;;6182664;23;20512;-64
2021/11/08 12:06:44;;;;;;;7.37;3.20;;;10.70;99.90;;;;;;6182587;23;20537;-65
2021/11/08 12:09:22;;;;;;;7.70;3.07;;;10.80;99.90;;;;;;6182114;23;21068;-64
2021/11/08 12:11:51;;;;;;;7.13;3.47;;;10.80;99.90;;;;;;6181186;23;20652;-64
2021/11/08 12:14:28;;;;;;;6.33;2.60;;;10.80;99.90;;;;;;6182627;23;20524;-63
2021/11/08 12:17:15;;;;;;;10.27;3.10;;;10.80;99.90;;;;;;6180642;23;20615;-63
2021/11/08 12:19:46;;;;;;;5.23;2.67;;;10.80;99.90;;;;;;6180526;23;21026;-63
2021/11/08 12:22:22;;;;;;;11.17;2.60;;;10.80;99.90;;;;;;6180983;23;20612;-64
2021/11/08 12:25:00;;;;;;;4.07;2.20;;;10.90;99.90;;;;;;6182747;23;20547;-63
2021/11/08 12:27:39;;;;;;;5.17;2.57;;;10.80;99.90;;;;;;6181372;23;20527;-63
2021/11/08 12:30:29;;;;;;;6.63;2.60;;;10.90;99.90;;;;;;6180053;23;20568;-63
2021/11/08 12:33:18;;;;;;;5.80;2.50;;;10.90;99.90;;;;;;6173731;23;21109;-64
2021/11/08 12:35:44;;;;;;;3.90;2.50;;;10.90;99.90;;;;;;6181891;23;20544;-63
2021/11/08 12:38:22;;;;;;;6.73;2.70;;;10.90;99.90;;;;;;6181188;23;20895;-63
2021/11/08 12:40:50;;;;;;;5.00;2.43;;;10.90;99.90;;;;;;6177560;23;20212;-64
2021/11/08 12:43:26;;;;;;;5.43;2.20;;;10.90;99.90;;;;;;6204108;23;20566;-64
2021/11/08 12:46:08;;;;;;;6.63;2.63;;;10.90;99.90;;;;;;6176335;23;20887;-64
2021/11/08 12:48:37;;;;;;;4.27;2.37;;;10.90;99.90;;;;;;6181038;23;20600;-63
2021/11/08 12:51:03;;;;;;;4.50;2.53;;;10.90;99.90;;;;;;6180005;23;21199;-63
2021/11/08 12:53:36;;;;;;;4.20;2.50;;;10.90;99.90;;;;;;6180716;23;20930;-64
2021/11/08 12:56:29;;;;;;;8.87;2.90;;;10.80;99.90;;;;;;6180739;23;20540;-63
2021/11/08 12:58:57;;;;;;;7.97;2.80;;;10.80;99.90;;;;;;6181644;23;20508;-64
2021/11/08 13:01:35;;;;;;;4.80;2.33;;;10.80;99.90;;;;;;6179960;23;20604;-64
2021/11/08 13:04:11;;;;;;;2.47;2.10;;;10.80;99.90;;;;;;6182060;23;21315;-64
2021/11/08 13:06:41;;;;;;;4.43;2.37;;;10.90;99.90;;;;;;6178852;23;20662;-64
2021/11/08 13:09:22;;;;;;;3.60;2.40;;;10.90;99.90;;;;;;6180319;23;20548;-64
2021/11/08 13:11:53;;;;;;;4.47;2.20;;;10.90;99.90;;;;;;6177646;23;20594;-64
2021/11/08 13:14:27;;;;;;;3.23;2.20;;;10.90;99.90;;;;;;6179540;23;20572;-64
2021/11/08 13:17:28;;;;;;;5.03;2.23;;;10.90;99.90;;;;;;6180039;23;20500;-64
2021/11/08 13:20:08;;;;;;;4.53;2.00;;;10.90;99.90;;;;;;6176161;23;20683;-62
2021/11/08 13:22:37;;;;;;;4.30;2.10;;;11.00;99.90;;;;;;6180825;23;20567;-64
2021/11/08 13:25:14;;;;;;;3.03;1.93;;;10.90;99.90;;;;;;6180540;23;20540;-64
2021/11/08 13:27:48;;;;;;;4.53;2.03;;;10.90;99.90;;;;;;6181378;23;20497;-64
2021/11/08 13:30:24;;;;;;;3.87;2.13;;;11.00;99.90;;;;;;6177948;23;20583;-64
2021/11/08 13:32:53;;;;;;;3.43;1.97;;;11.00;99.90;;;;;;6181458;23;20497;-64
2021/11/08 13:35:25;;;;;;;3.07;2.30;;;11.00;99.90;;;;;;6181360;23;20907;-64
2021/11/08 13:38:00;;;;;;;3.23;2.67;;;11.00;99.90;;;;;;6181183;23;20499;-64
2021/11/08 13:40:28;;;;;;;2.83;2.30;;;11.00;99.90;;;;;;6179997;23;20588;-64
2021/11/08 13:43:05;;;;;;;4.87;2.60;;;11.00;99.90;;;;;;6179353;23;20564;-64
2021/11/08 13:46:01;;;;;;;4.10;2.70;;;11.00;99.90;;;;;;6180496;23;20516;-64
2021/11/08 13:48:48;;;;;;;4.53;2.90;;;11.10;99.90;;;;;;6181399;23;20536;-64
2021/11/08 13:51:46;;;;;;;5.20;3.10;;;11.10;99.90;;;;;;6180096;23;20627;-65
2021/11/08 13:54:22;;;;;;;6.47;3.20;;;11.10;99.90;;;;;;6180904;23;20501;-64
2021/11/08 13:56:52;;;;;;;5.13;3.37;;;11.00;99.90;;;;;;6181701;23;20528;-64
2021/11/08 13:59:28;;;;;;;3.07;2.77;;;11.00;99.90;;;;;;6182137;23;20615;-64
2021/11/08 14:02:02;;;;;;;5.40;2.80;;;11.10;99.90;;;;;;6181297;23;20657;-64
2021/11/08 14:04:40;;;;;;;3.30;3.00;;;11.10;99.90;;;;;;6180871;23;20615;-64
2021/11/08 14:07:13;;;;;;;4.00;3.17;;;11.10;99.90;;;;;;6180990;23;20592;-64
2021/11/08 14:09:41;;;;;;;3.93;3.07;;;11.10;99.90;;;;;;6180439;23;20524;-64
2021/11/08 14:12:10;;;;;;;3.67;2.80;;;11.10;99.90;;;;;;6179635;23;20588;-64
2021/11/08 14:14:40;;;;;;;3.33;2.60;;;11.10;99.90;;;;;;6181697;23;20532;-64
2021/11/08 14:17:22;;;;;;;4.50;4.03;;;11.10;99.90;;;;;;6181689;23;20587;-64
2021/11/08 14:19:57;;;;;;;2.40;2.20;;;11.10;99.90;;;;;;6182735;23;20575;-64
2021/11/08 14:22:34;;;;;;;3.20;2.43;;;11.10;99.90;;;;;;6178606;23;20591;-64
2021/11/08 14:25:07;;;;;;;3.60;2.50;;;11.10;99.90;;;;;;6181886;23;20544;-64
2021/11/08 14:27:37;;;;;;;4.70;2.43;;;11.20;99.90;;;;;;6181819;23;20496;-64
2021/11/08 14:30:19;;;;;;;3.13;2.03;;;11.20;99.90;;;;;;6181736;23;20571;-64
2021/11/08 14:32:50;;;;;;;4.63;2.40;;;11.20;99.90;;;;;;6185859;23;20536;-64
2021/11/08 14:35:24;;;;;;;4.47;2.20;;;11.20;99.90;;;;;;6185767;23;20572;-64
2021/11/08 14:38:02;;;;;;;3.83;2.40;;;11.20;99.90;;;;;;6183752;23;21024;-64
2021/11/08 14:40:40;;;;;;;3.50;2.23;;;11.20;99.90;;;;;;6181408;23;20653;-64
2021/11/08 14:43:26;;;;;;;6.27;2.23;;;11.20;99.90;;;;;;6181709;23;20508;-64
2021/11/08 14:45:57;;;;;;;2.40;1.93;;;11.20;99.90;;;;;;6181606;23;20508;-64
2021/11/08 14:48:25;;;;;;;4.07;2.23;;;11.20;99.90;;;;;;6178528;23;20509;-64
2021/11/08 14:50:51;;;;;;;4.23;2.07;;;11.20;99.90;;;;;;6178598;23;21015;-64
2021/11/08 14:53:17;;;;;;;3.37;2.10;;;11.20;99.90;;;;;;6180231;23;20568;-65
2021/11/08 14:55:43;;;;;;;3.70;2.10;;;11.20;99.90;;;;;;6181721;23;20183;-64
2021/11/08 14:58:18;;;;;;;4.43;2.33;;;11.20;99.90;;;;;;6179286;23;20568;-65
2021/11/08 15:00:47;;;;;;;4.47;2.07;;;11.20;99.90;;;;;;6178044;23;20638;-65
2021/11/08 15:03:15;;;;;;;2.23;1.70;;;11.20;99.90;;;;;;6180879;23;20540;-65
2021/11/08 15:05:45;;;;;;;3.70;2.20;;;11.20;99.90;;;;;;6181874;23;20598;-65
2021/11/08 15:08:14;;;;;;;5.60;1.90;;;11.20;99.90;;;;;;6180050;23;21045;-65
2021/11/08 15:10:49;;;;;;;4.70;1.80;;;11.20;99.90;;;;;;6179683;23;20598;-64
2021/11/08 15:13:15;;;;;;;4.97;2.27;;;11.20;99.90;;;;;;6180315;23;20504;-65
2021/11/08 15:15:53;;;;;;;3.17;2.30;;;11.20;99.90;;;;;;6204698;23;20664;-64
2021/11/08 15:18:23;;;;;;;4.57;2.37;;;11.20;99.90;;;;;;6180737;23;20603;-65
2021/11/08 15:20:55;;;;;;;4.40;1.70;;;11.20;99.90;;;;;;6202355;23;21253;-65
2021/11/08 15:23:37;;;;;;;4.23;2.07;;;11.20;99.90;;;;;;6178604;23;20501;-65
2021/11/08 15:26:10;;;;;;;6.37;2.30;;;11.20;99.90;;;;;;6180646;23;21009;-65
2021/11/08 15:28:44;;;;;;;6.83;2.43;;;11.20;99.90;;;;;;6180616;23;20617;-65
2021/11/08 15:31:23;;;;;;;4.93;2.53;;;11.20;99.90;;;;;;6180007;23;20631;-65
2021/11/08 15:34:08;;;;;;;3.20;2.10;;;11.20;99.90;;;;;;6182364;23;20844;-65
2021/11/08 15:36:42;;;;;;;4.40;2.60;;;11.20;99.90;;;;;;6180001;23;20622;-65
2021/11/08 15:39:12;;;;;;;3.67;2.30;;;11.20;99.90;;;;;;6179666;23;20603;-65
2021/11/08 15:41:42;;;;;;;6.27;2.20;;;11.30;99.90;;;;;;6178113;23;20603;-65
2021/11/08 15:44:09;;;;;;;3.13;2.40;;;11.20;99.90;;;;;;6182120;23;20547;-65
2021/11/08 15:46:36;;;;;;;4.20;2.50;;;11.20;99.90;;;;;;6181593;23;20878;-65
2021/11/08 15:49:08;;;;;;;4.50;2.17;;;11.20;99.90;;;;;;6181160;23;20632;-65
2021/11/08 15:51:37;;;;;;;6.67;2.40;;;11.30;99.90;;;;;;6178541;23;20602;-65
2021/11/08 15:54:03;;;;;;;4.27;2.13;;;11.20;99.90;;;;;;6178953;23;20733;-65
2021/11/08 15:56:29;;;;;;;3.13;2.40;;;11.20;99.90;;;;;;6182391;23;20540;-64
2021/11/08 15:58:54;;;;;;;3.57;2.00;;;11.20;99.90;;;;;;6179638;23;20528;-65
2021/11/08 16:01:20;;;;;;;2.50;1.70;;;11.20;99.90;;;;;;6180656;23;20212;-65
2021/11/08 16:03:48;;;;;;;5.33;3.20;;;11.20;99.90;;;;;;6178601;23;20236;-66
2021/11/08 16:06:21;;;;;;;4.80;2.07;;;11.20;99.90;;;;;;6180636;23;20160;-64
2021/11/08 16:08:50;;;;;;;5.13;1.70;;;11.20;99.90;;;;;;6179410;23;20499;-65
2021/11/08 16:11:17;;;;;;;2.30;1.80;;;11.20;99.90;;;;;;6181042;23;20588;-65
2021/11/08 16:13:43;;;;;;;3.30;2.33;;;11.20;99.90;;;;;;6178133;23;20544;-65
2021/11/08 16:16:09;;;;;;;4.80;1.93;;;11.20;99.90;;;;;;6177593;23;20548;-65
2021/11/08 16:18:38;;;;;;;2.70;2.03;;;11.20;99.90;;;;;;6181780;23;20148;-65
2021/11/08 16:21:07;;;;;;;5.30;2.93;;;11.20;99.90;;;;;;6178397;23;20298;-65
2021/11/08 16:23:33;;;;;;;2.60;1.83;;;11.10;99.90;;;;;;6184399;23;20638;-65
2021/11/08 16:26:00;;;;;;;4.17;2.10;;;11.10;99.90;;;;;;6187772;23;20540;-65
2021/11/08 16:28:26;;;;;;;3.70;1.80;;;11.10;99.90;;;;;;6182050;23;20669;-65
2021/11/08 16:30:55;;;;;;;7.07;2.13;;;11.10;99.90;;;;;;6182967;23;20626;-65
2021/11/08 16:33:25;;;;;;;3.57;2.00;;;11.10;99.90;;;;;;6181492;23;21041;-65
2021/11/08 16:35:59;;;;;;;4.93;2.07;;;11.10;99.90;;;;;;6181801;23;20541;-65
2021/11/08 16:38:29;;;;;;;2.63;2.03;;;11.00;99.90;;;;;;6181929;23;20543;-65
2021/11/08 16:40:59;;;;;;;1.93;1.70;;;11.00;99.90;;;;;;6180688;23;20611;-65
2021/11/08 16:43:25;;;;;;;4.80;1.57;;;11.00;99.90;;;;;;6181360;23;20981;-65
2021/11/08 16:45:54;;;;;;;1.73;1.53;;;11.00;99.90;;;;;;6179825;23;20544;-66
2021/11/08 16:48:28;;;;;;;4.93;1.87;;;11.00;99.90;;;;;;6179501;23;20571;-65
2021/11/08 16:50:57;;;;;;;4.73;1.90;;;11.00;99.90;;;;;;6176442;23;20623;-66
2021/11/08 16:53:30;;;;;;;2.37;1.87;;;11.10;99.90;;;;;;6180982;23;20541;-66
2021/11/08 16:56:00;;;;;;;3.10;2.00;;;11.10;99.90;;;;;;6181285;23;20528;-65
2021/11/08 16:58:30;;;;;;;5.30;2.20;;;11.10;99.90;;;;;;6179851;23;20601;-66
2021/11/08 17:01:00;;;;;;;3.07;1.93;;;11.10;99.90;;;;;;6179895;23;20626;-66
2021/11/08 17:03:29;;;;;;;2.43;2.20;;;11.10;99.90;;;;;;6179585;23;20536;-66
2021/11/08 17:06:05;;;;;;;3.10;2.67;;;11.10;99.90;;;;;;6180208;23;20547;-65
2021/11/08 17:11:18;;;;;;;4.27;2.57;;;11.10;99.90;;;;;;6176325;23;20997;-65
2021/11/08 17:13:46;;;;;;;2.90;2.43;;;11.10;99.90;;;;;;6176477;23;20507;-66
2021/11/08 17:16:12;;;;;;;4.60;2.10;;;11.10;99.90;;;;;;6178633;23;20540;-66
2021/11/08 17:18:40;;;;;;;4.40;2.23;;;11.10;99.90;;;;;;6176225;23;21136;-67
2021/11/08 17:21:06;;;;;;;2.77;2.10;;;11.10;99.90;;;;;;6177000;23;20630;-65
2021/11/08 17:23:37;;;;;;;5.73;2.70;;;11.10;99.90;;;;;;6179214;23;20615;-68
2021/11/08 17:26:05;;;;;;;3.10;1.97;;;11.10;99.90;;;;;;6177580;23;20165;-67
2021/11/08 17:28:35;;;;;;;3.73;2.37;;;11.10;99.90;;;;;;6179908;23;20558;-66
2021/11/08 17:31:04;;;;;;;6.37;2.50;;;11.10;99.90;;;;;;6179768;23;20596;-66
2021/11/08 17:33:30;;;;;;;2.83;2.63;;;11.10;99.90;;;;;;6179263;23;20659;-65
2021/11/08 17:35:56;;;;;;;5.07;3.40;;;11.10;99.90;;;;;;6181742;23;20542;-66
2021/11/08 17:38:26;;;;;;;2.80;2.50;;;11.10;99.90;;;;;;6180504;23;20874;-66
2021/11/08 17:40:52;;;;;;;3.97;2.63;;;11.10;99.90;;;;;;6178741;23;20666;-67
2021/11/08 17:43:22;;;;;;;4.40;2.80;;;11.10;99.90;;;;;;6179253;23;20883;-67
2021/11/08 17:45:52;;;;;;;6.60;3.17;;;11.00;99.90;;;;;;6180665;23;20519;-67
2021/11/08 17:48:21;;;;;;;5.50;3.20;;;11.00;99.90;;;;;;6179860;23;20622;-67
2021/11/08 17:50:58;;;;;;;3.60;2.80;;;11.00;99.90;;;;;;6179152;23;20602;-66
2021/11/08 17:53:31;;;;;;;6.93;3.30;;;11.00;99.90;;;;;;6205029;23;21096;-66
2021/11/08 17:55:59;;;;;;;7.17;3.17;;;11.00;99.90;;;;;;6173938;23;20515;-66
2021/11/08 17:58:27;;;;;;;6.40;3.83;;;11.00;99.90;;;;;;6178714;23;20536;-67
2021/11/08 18:01:00;;;;;;;4.93;3.60;;;11.00;99.90;;;;;;6178097;23;20639;-65
2021/11/08 18:03:28;;;;;;;6.37;3.90;;;11.00;99.90;;;;;;6178444;23;20591;-65
2021/11/08 18:05:55;;;;;;;7.80;4.67;;;11.00;99.90;;;;;;6180052;23;21106;-66
2021/11/08 18:08:23;;;;;;;7.70;5.70;;;11.00;99.90;;;;;;6177794;23;20544;-65
2021/11/08 18:10:52;;;;;;;8.80;4.83;;;10.90;99.90;;;;;;6178903;23;20631;-65
2021/11/08 18:13:19;;;;;;;7.83;5.27;;;10.90;99.90;;;;;;6180050;23;20532;-65
2021/11/08 18:15:46;;;;;;;6.60;5.17;;;11.00;99.90;;;;;;6177062;23;20598;-65
2021/11/08 18:18:12;;;;;;;8.17;4.73;;;10.90;99.90;;;;;;6179797;23;20541;-65
2021/11/08 18:23:36;;;;;;;7.80;4.27;;;10.90;99.90;;;;;;6191215;23;20512;-65
2021/11/08 18:28:41;;;;;;;6.27;3.90;;;10.90;99.90;;;;;;6177598;23;20504;-65
2021/11/08 18:31:17;;;;;;;6.00;3.60;;;10.90;99.90;;;;;;6178358;23;20592;-69
2021/11/08 18:33:43;;;;;;;8.10;3.70;;;10.90;99.90;;;;;;6179861;23;20515;-65
2021/11/08 18:36:14;;;;;;;4.10;3.07;;;10.90;99.90;;;;;;6176905;23;20659;-65
2021/11/08 18:38:41;;;;;;;6.30;3.30;;;10.90;99.90;;;;;;6176922;23;20555;-62
2021/11/08 18:41:07;;;;;;;4.37;2.90;;;10.90;99.90;;;;;;6173523;23;20709;-63
2021/11/08 18:43:34;;;;;;;6.57;3.00;;;10.90;99.90;;;;;;6180534;23;20900;-65
2021/11/08 18:46:00;;;;;;;7.43;3.33;;;10.80;99.90;;;;;;6176396;23;20572;-66
2021/11/08 18:48:27;;;;;;;5.17;3.40;;;10.80;99.90;;;;;;6179651;23;21068;-66
2021/11/08 18:50:53;;;;;;;2.93;2.63;;;10.80;99.90;;;;;;6176028;23;20607;-64
2021/11/08 18:53:22;;;;;;;4.73;2.80;;;10.80;99.90;;;;;;6177271;23;20617;-66
2021/11/08 18:55:51;;;;;;;5.83;2.53;;;10.80;99.90;;;;;;6177314;23;20572;-64
2021/11/08 18:58:18;;;;;;;3.23;2.40;;;10.80;99.90;;;;;;6180939;23;21053;-68
2021/11/08 19:00:48;;;;;;;5.60;2.50;;;10.80;99.90;;;;;;6182000;23;20619;-64
2021/11/08 19:06:17;;;;;;;11.20;2.33;;;10.80;99.90;;;;;;6169687;23;20611;-66
2021/11/08 19:08:58;;;;;;;5.17;2.60;;;10.80;99.90;;;;;;6179655;23;20964;-65
2021/11/08 19:11:29;;;;;;;3.80;1.83;;;10.80;99.90;;;;;;6173908;23;20988;-67
2021/11/08 19:13:59;;;;;;;5.53;2.10;;;10.80;99.90;;;;;;6183747;23;20513;-61
2021/11/08 19:16:26;;;;;;;8.03;2.23;;;10.80;99.90;;;;;;6181154;23;21099;-66
2021/11/08 19:18:53;;;;;;;4.70;2.03;;;10.80;99.90;;;;;;6182767;23;20844;-66
2021/11/08 19:21:22;;;;;;;4.83;2.43;;;10.80;99.90;;;;;;6179729;23;20610;-65
2021/11/08 19:23:48;;;;;;;3.17;1.90;;;10.70;99.90;;;;;;6180313;23;20545;-66
2021/11/08 19:26:21;;;;;;;6.57;2.47;;;10.80;99.90;;;;;;6180934;23;20595;-66
2021/11/08 19:28:51;;;;;;;5.00;2.63;;;10.70;99.90;;;;;;6179819;23;20503;-66
2021/11/08 19:31:19;;;;;;;4.40;2.87;;;10.70;99.90;;;;;;6177596;23;20596;-66
2021/11/08 19:39:15;;;;;;;3.77;2.00;;;10.70;99.90;;;;;;6180020;23;20512;-65
2021/11/08 19:41:44;;;;;;;5.50;2.47;;;10.60;99.90;;;;;;6174162;23;21120;-65
2021/11/08 19:44:10;;;;;;;7.30;3.03;;;10.60;99.90;;;;;;6177568;23;20547;-65